createdAt,value
2022-11-01T00:11:19.429Z,16.8
2022-11-01T00:26:19.427Z,16.8
2022-11-01T00:41:19.427Z,16.8
2022-11-01T00:56:19.422Z,16.6
2022-11-01T01:11:19.472Z,16.5
2022-11-01T01:26:19.438Z,16.2
2022-11-01T01:41:19.429Z,16.1
2022-11-01T01:56:19.439Z,16.1
2022-11-01T02:11:19.431Z,16
2022-11-01T02:26:19.435Z,15.9
2022-11-01T02:41:19.455Z,16
2022-11-01T02:56:19.428Z,16.2
2022-11-01T03:11:19.431Z,16.2
2022-11-01T03:26:19.438Z,16.4
2022-11-01T03:41:19.420Z,16.4
2022-11-01T03:56:19.433Z,16.2
2022-11-01T04:11:19.426Z,16.1
2022-11-01T04:26:19.434Z,16
2022-11-01T04:41:19.477Z,15.9
2022-11-01T04:56:19.431Z,15.8
2022-11-01T05:11:19.437Z,15.7
2022-11-01T05:26:19.431Z,15.2
2022-11-01T05:41:19.494Z,14.6
2022-11-01T05:56:19.416Z,14
2022-11-01T06:11:19.427Z,13.6
2022-11-01T06:26:19.427Z,13.2
2022-11-01T06:41:19.427Z,13.1
2022-11-01T06:56:19.438Z,12.9
2022-11-01T07:11:19.436Z,12.6
2022-11-01T07:26:19.427Z,12.4
2022-11-01T07:41:19.431Z,12.4
2022-11-01T07:56:19.439Z,12.4
2022-11-01T08:11:19.431Z,12.6
2022-11-01T08:26:19.440Z,12.7
2022-11-01T08:41:19.432Z,12.9
2022-11-01T08:56:19.429Z,13
2022-11-01T09:11:19.460Z,13.1
2022-11-01T09:26:19.440Z,13.2
2022-11-01T09:41:19.430Z,13.3
2022-11-01T09:56:19.431Z,13.4
2022-11-01T10:11:19.423Z,13.7
2022-11-01T10:26:19.438Z,13.8
2022-11-01T10:41:19.433Z,13.9
2022-11-01T10:56:21.277Z,14.1
2022-11-01T11:11:19.431Z,14.2
2022-11-01T11:26:19.519Z,14.6
2022-11-01T11:41:19.430Z,14.7
2022-11-01T11:56:19.432Z,14.6
2022-11-01T12:11:19.425Z,14.7
2022-11-01T12:26:19.429Z,14.8
2022-11-01T12:41:19.440Z,14.8
2022-11-01T12:56:19.437Z,14.9
2022-11-01T13:11:19.433Z,14.8
2022-11-01T13:26:19.467Z,14.9
2022-11-01T13:41:19.434Z,15.1
2022-11-01T13:56:19.444Z,14.9
2022-11-01T14:11:19.431Z,14.9
2022-11-01T14:26:19.426Z,14.9
2022-11-01T14:41:19.442Z,15
2022-11-01T14:56:19.432Z,15.2
2022-11-01T15:11:19.438Z,15.7
2022-11-01T15:26:19.488Z,15.2
2022-11-01T15:41:19.436Z,15.4
2022-11-01T15:56:19.436Z,14.6
2022-11-01T16:11:19.442Z,14.1
2022-11-01T16:26:19.428Z,13.8
2022-11-01T16:41:19.430Z,13.6
2022-11-01T16:56:35.422Z,13.4
2022-11-01T17:11:19.436Z,13.3
2022-11-01T17:26:19.443Z,13.2
2022-11-01T17:41:19.434Z,13.1
2022-11-01T17:56:19.436Z,12.9
2022-11-01T18:11:19.437Z,12.9
2022-11-01T18:26:19.438Z,12.9
2022-11-01T18:41:19.452Z,13
2022-11-01T18:56:19.446Z,12.8
2022-11-01T19:11:19.431Z,12.8
2022-11-01T19:26:19.437Z,12.8
2022-11-01T19:41:19.436Z,12.7
2022-11-01T19:56:19.455Z,12.7
2022-11-01T20:11:19.446Z,12.6
2022-11-01T20:26:19.435Z,12.6
2022-11-01T20:41:19.436Z,12.4
2022-11-01T20:56:19.436Z,12.4
2022-11-01T21:11:19.438Z,12.5
2022-11-01T21:26:19.439Z,12.6
2022-11-01T21:41:19.476Z,12.6
2022-11-01T21:56:19.434Z,12.8
2022-11-01T22:11:23.351Z,12.8
2022-11-01T22:26:19.436Z,12.9
2022-11-01T22:41:19.430Z,13.1
2022-11-01T22:56:19.422Z,13.1
2022-11-01T23:11:19.442Z,13.1
2022-11-01T23:26:19.431Z,13.2
2022-11-01T23:41:19.427Z,13
2022-11-01T23:56:19.440Z,13.1
